sensor_id;sensor_type;location;lat;lon;timestamp;pressure;altitude;pressure_sealevel;temperature;humidity
69184;BME280;56291;53.960;27.550;2023-02-28T05:00:16;100268.47;;;-8.20;75.63
69184;BME280;56291;53.960;27.550;2023-02-28T05:02:43;100264.22;;;-8.20;75.96
69184;BME280;56291;53.960;27.550;2023-02-28T05:05:09;100273.53;;;-8.30;75.54
69184;BME280;56291;53.960;27.550;2023-02-28T05:07:35;100265.00;;;-8.33;76.01
69184;BME280;56291;53.960;27.550;2023-02-28T05:10:02;100282.09;;;-8.17;75.64
69184;BME280;56291;53.960;27.550;2023-02-28T05:12:28;100273.56;;;-8.22;75.35
69184;BME280;56291;53.960;27.550;2023-02-28T05:14:55;100271.88;;;-8.20;75.26
69184;BME280;56291;53.960;27.550;2023-02-28T05:17:22;100274.41;;;-8.26;75.31
69184;BME280;56291;53.960;27.550;2023-02-28T05:19:48;100265.81;;;-8.44;75.17
69184;BME280;56291;53.960;27.550;2023-02-28T05:22:15;100270.06;;;-8.53;75.78
69184;BME280;56291;53.960;27.550;2023-02-28T05:24:44;100257.31;;;-8.43;75.46
69184;BME280;56291;53.960;27.550;2023-02-28T05:27:13;100265.00;;;-8.46;75.83
69184;BME280;56291;53.960;27.550;2023-02-28T05:29:40;100259.03;;;-8.51;75.62
69184;BME280;56291;53.960;27.550;2023-02-28T05:32:10;100252.19;;;-8.58;75.69
69184;BME280;56291;53.960;27.550;2023-02-28T05:34:38;100256.47;;;-8.54;76.09
69184;BME280;56291;53.960;27.550;2023-02-28T05:37:05;100252.22;;;-8.47;75.90
69184;BME280;56291;53.960;27.550;2023-02-28T05:39:31;100250.56;;;-8.36;75.65
69184;BME280;56291;53.960;27.550;2023-02-28T05:41:57;100257.31;;;-8.49;75.73
69184;BME280;56291;53.960;27.550;2023-02-28T05:44:24;100251.25;;;-8.74;76.20
69184;BME280;56291;53.960;27.550;2023-02-28T05:46:50;100251.38;;;-8.54;75.80
69184;BME280;56291;53.960;27.550;2023-02-28T05:49:16;100249.56;;;-8.76;76.20
69184;BME280;56291;53.960;27.550;2023-02-28T05:51:42;100246.13;;;-8.82;76.86
69184;BME280;56291;53.960;27.550;2023-02-28T05:54:09;100245.31;;;-8.68;76.57
69184;BME280;56291;53.960;27.550;2023-02-28T05:56:35;100240.22;;;-8.73;76.34
69184;BME280;56291;53.960;27.550;2023-02-28T05:59:03;100238.47;;;-8.80;77.15
69184;BME280;56291;53.960;27.550;2023-02-28T06:01:36;100234.34;;;-8.56;76.32
69184;BME280;56291;53.960;27.550;2023-02-28T06:04:05;100241.03;;;-8.75;76.82
69184;BME280;56291;53.960;27.550;2023-02-28T06:06:38;100228.28;;;-8.75;76.96
69184;BME280;56291;53.960;27.550;2023-02-28T06:09:08;100234.13;;;-8.95;77.45
69184;BME280;56291;53.960;27.550;2023-02-28T06:11:34;100235.81;;;-8.99;78.21
69184;BME280;56291;53.960;27.550;2023-02-28T06:14:01;100242.69;;;-8.88;78.38
69184;BME280;56291;53.960;27.550;2023-02-28T06:16:29;100226.53;;;-8.92;78.26
69184;BME280;56291;53.960;27.550;2023-02-28T06:18:58;100223.97;;;-8.90;78.44
69184;BME280;56291;53.960;27.550;2023-02-28T06:21:24;100223.25;;;-8.60;77.94
69184;BME280;56291;53.960;27.550;2023-02-28T06:23:54;100217.31;;;-8.56;77.56
69184;BME280;56291;53.960;27.550;2023-02-28T06:26:21;100210.56;;;-8.38;77.15
69184;BME280;56291;53.960;27.550;2023-02-28T06:28:48;100214.84;;;-8.23;76.78
69184;BME280;56291;53.960;27.550;2023-02-28T06:31:16;100213.13;;;-8.28;76.90
69184;BME280;56291;53.960;27.550;2023-02-28T06:33:44;100214.00;;;-8.30;77.31
69184;BME280;56291;53.960;27.550;2023-02-28T06:36:12;100210.59;;;-8.15;76.31
69184;BME280;56291;53.960;27.550;2023-02-28T06:38:39;100207.22;;;-8.14;77.04
69184;BME280;56291;53.960;27.550;2023-02-28T06:41:07;100202.06;;;-8.22;77.39
69184;BME280;56291;53.960;27.550;2023-02-28T06:43:37;100207.22;;;-8.13;77.24
69184;BME280;56291;53.960;27.550;2023-02-28T06:46:06;100208.09;;;-8.04;77.40
69184;BME280;56291;53.960;27.550;2023-02-28T06:48:33;100197.03;;;-7.97;77.06
69184;BME280;56291;53.960;27.550;2023-02-28T06:51:08;100203.81;;;-8.12;77.39
69184;BME280;56291;53.960;27.550;2023-02-28T06:53:35;100194.44;;;-8.10;78.07
69184;BME280;56291;53.960;27.550;2023-02-28T06:56:06;100201.28;;;-7.93;76.93
69184;BME280;56291;53.960;27.550;2023-02-28T06:58:33;100201.31;;;-7.82;77.66
69184;BME280;56291;53.960;27.550;2023-02-28T07:01:03;100204.72;;;-7.71;77.66
69184;BME280;56291;53.960;27.550;2023-02-28T07:03:30;100214.91;;;-7.79;77.46
69184;BME280;56291;53.960;27.550;2023-02-28T07:05:56;100215.78;;;-7.86;78.23
69184;BME280;56291;53.960;27.550;2023-02-28T07:08:23;100214.94;;;-7.59;78.23
69184;BME280;56291;53.960;27.550;2023-02-28T07:10:57;100219.22;;;-7.51;77.53
69184;BME280;56291;53.960;27.550;2023-02-28T07:13:24;100211.53;;;-7.47;77.34
69184;BME280;56291;53.960;27.550;2023-02-28T07:15:54;100209.81;;;-7.42;77.18
69184;BME280;56291;53.960;27.550;2023-02-28T07:18:21;100201.31;;;-7.36;77.09
69184;BME280;56291;53.960;27.550;2023-02-28T07:20:47;100207.25;;;-7.46;78.84
69184;BME280;56291;53.960;27.550;2023-02-28T07:23:13;100202.16;;;-7.48;77.69
69184;BME280;56291;53.960;27.550;2023-02-28T07:25:40;100197.88;;;-7.24;77.74
69184;BME280;56291;53.960;27.550;2023-02-28T07:28:06;100194.50;;;-7.42;78.86
69184;BME280;56291;53.960;27.550;2023-02-28T07:30:32;100195.31;;;-7.27;78.64
69184;BME280;56291;53.960;27.550;2023-02-28T07:32:59;100197.00;;;-7.21;78.17
69184;BME280;56291;53.960;27.550;2023-02-28T07:35:26;100196.16;;;-7.14;78.39
69184;BME280;56291;53.960;27.550;2023-02-28T07:37:53;100197.84;;;-7.23;78.66
69184;BME280;56291;53.960;27.550;2023-02-28T07:40:20;100196.09;;;-6.99;77.85
69184;BME280;56291;53.960;27.550;2023-02-28T07:42:48;100196.09;;;-6.99;78.96
69184;BME280;56291;53.960;27.550;2023-02-28T07:45:14;100195.19;;;-6.78;78.23
69184;BME280;56291;53.960;27.550;2023-02-28T07:47:42;100198.56;;;-6.68;78.77
69184;BME280;56291;53.960;27.550;2023-02-28T07:50:10;100198.63;;;-6.79;79.35
69184;BME280;56291;53.960;27.550;2023-02-28T07:52:37;100188.31;;;-6.65;78.89
69184;BME280;56291;53.960;27.550;2023-02-28T07:55:05;100180.66;;;-6.69;79.48
69184;BME280;56291;53.960;27.550;2023-02-28T07:57:32;100175.53;;;-6.66;78.67
69184;BME280;56291;53.960;27.550;2023-02-28T07:59:58;100183.13;;;-6.51;79.12
69184;BME280;56291;53.960;27.550;2023-02-28T08:02:25;100185.69;;;-6.43;79.51
69184;BME280;56291;53.960;27.550;2023-02-28T08:04:51;100181.34;;;-6.30;78.76
69184;BME280;56291;53.960;27.550;2023-02-28T08:07:18;100178.75;;;-6.27;79.35
69184;BME280;56291;53.960;27.550;2023-02-28T08:09:45;100178.66;;;-6.10;78.95
69184;BME280;56291;53.960;27.550;2023-02-28T08:12:11;100167.56;;;-6.11;78.80
69184;BME280;56291;53.960;27.550;2023-02-28T08:14:38;100173.53;;;-6.10;79.10
69184;BME280;56291;53.960;27.550;2023-02-28T08:17:06;100178.56;;;-5.98;79.04
69184;BME280;56291;53.960;27.550;2023-02-28T08:19:32;100174.25;;;-5.94;78.59
69184;BME280;56291;53.960;27.550;2023-02-28T08:21:59;100175.88;;;-5.86;78.62
69184;BME280;56291;53.960;27.550;2023-02-28T08:24:25;100172.47;;;-5.83;78.78
69184;BME280;56291;53.960;27.550;2023-02-28T08:26:51;100174.16;;;-5.82;78.97
69184;BME280;56291;53.960;27.550;2023-02-28T08:29:18;100172.38;;;-5.71;79.30
69184;BME280;56291;53.960;27.550;2023-02-28T08:31:46;100177.41;;;-5.63;79.42
69184;BME280;56291;53.960;27.550;2023-02-28T08:34:14;100168.78;;;-5.54;79.02
69184;BME280;56291;53.960;27.550;2023-02-28T08:36:41;100179.00;;;-5.46;79.20
69184;BME280;56291;53.960;27.550;2023-02-28T08:39:08;100167.75;;;-5.33;79.16
69184;BME280;56291;53.960;27.550;2023-02-28T08:41:35;100160.75;;;-5.16;78.81
69184;BME280;56291;53.960;27.550;2023-02-28T08:44:01;100161.56;;;-5.10;79.03
69184;BME280;56291;53.960;27.550;2023-02-28T08:46:27;100156.31;;;-5.01;78.25
69184;BME280;56291;53.960;27.550;2023-02-28T08:48:55;100160.50;;;-4.94;78.44
69184;BME280;56291;53.960;27.550;2023-02-28T08:51:25;100154.44;;;-4.87;78.83
69184;BME280;56291;53.960;27.550;2023-02-28T08:53:58;100165.50;;;-4.83;78.31
69184;BME280;56291;53.960;27.550;2023-02-28T08:56:26;100166.38;;;-4.81;77.85
69184;BME280;56291;53.960;27.550;2023-02-28T08:58:55;100162.81;;;-4.72;78.59
69184;BME280;56291;53.960;27.550;2023-02-28T09:01:27;100159.41;;;-4.74;78.29
69184;BME280;56291;53.960;27.550;2023-02-28T09:03:54;100152.50;;;-4.68;78.06
69184;BME280;56291;53.960;27.550;2023-02-28T09:06:23;100164.56;;;-4.76;78.57
69184;BME280;56291;53.960;27.550;2023-02-28T09:08:50;100159.19;;;-4.57;77.78
69184;BME280;56291;53.960;27.550;2023-02-28T09:11:17;100146.28;;;-4.50;78.24
69184;BME280;56291;53.960;27.550;2023-02-28T09:13:45;100139.19;;;-4.31;78.14
69184;BME280;56291;53.960;27.550;2023-02-28T09:16:13;100138.13;;;-4.17;78.08
69184;BME280;56291;53.960;27.550;2023-02-28T09:18:40;100135.53;;;-4.17;78.23
69184;BME280;56291;53.960;27.550;2023-02-28T09:21:09;100132.19;;;-4.21;77.74
69184;BME280;56291;53.960;27.550;2023-02-28T09:23:36;100124.31;;;-4.11;77.57
69184;BME280;56291;53.960;27.550;2023-02-28T09:26:05;100124.25;;;-4.07;77.81
69184;BME280;56291;53.960;27.550;2023-02-28T09:28:31;100124.00;;;-3.90;77.99
69184;BME280;56291;53.960;27.550;2023-02-28T09:30:58;100116.22;;;-3.85;77.35
69184;BME280;56291;53.960;27.550;2023-02-28T09:33:25;100118.75;;;-3.84;77.33
69184;BME280;56291;53.960;27.550;2023-02-28T09:35:58;100116.94;;;-3.77;77.16
69184;BME280;56291;53.960;27.550;2023-02-28T09:38:26;100117.63;;;-3.67;76.47
69184;BME280;56291;53.960;27.550;2023-02-28T09:40:57;100112.44;;;-3.66;76.59
69184;BME280;56291;53.960;27.550;2023-02-28T09:43:33;100118.44;;;-3.65;77.60
69184;BME280;56291;53.960;27.550;2023-02-28T09:49:05;100114.69;;;-3.47;77.01
69184;BME280;56291;53.960;27.550;2023-02-28T09:54:22;100118.81;;;-3.38;77.05
69184;BME280;56291;53.960;27.550;2023-02-28T10:05:35;100122.31;;;-2.96;75.52
69184;BME280;56291;53.960;27.550;2023-02-28T10:08:30;100120.69;;;-3.00;76.79
69184;BME280;56291;53.960;27.550;2023-02-28T10:11:01;100124.72;;;-2.88;76.46
69184;BME280;56291;53.960;27.550;2023-02-28T10:16:13;100117.63;;;-2.77;76.58
69184;BME280;56291;53.960;27.550;2023-02-28T10:18:45;100109.97;;;-2.80;76.37
69184;BME280;56291;53.960;27.550;2023-02-28T10:21:26;100115.66;;;-2.65;75.81
69184;BME280;56291;53.960;27.550;2023-02-28T10:24:03;100111.03;;;-2.49;72.75
69184;BME280;56291;53.960;27.550;2023-02-28T10:26:32;100094.81;;;-2.54;76.04
69184;BME280;56291;53.960;27.550;2023-02-28T10:28:59;100087.91;;;-2.51;75.89
69184;BME280;56291;53.960;27.550;2023-02-28T10:31:31;100076.47;;;-2.41;73.27
69184;BME280;56291;53.960;27.550;2023-02-28T10:34:25;100064.56;;;-2.45;74.81
69184;BME280;56291;53.960;27.550;2023-02-28T10:36:59;100068.75;;;-2.41;75.86
69184;BME280;56291;53.960;27.550;2023-02-28T10:39:45;100058.38;;;-2.37;75.98
69184;BME280;56291;53.960;27.550;2023-02-28T10:42:41;100047.84;;;-2.28;71.99
69184;BME280;56291;53.960;27.550;2023-02-28T10:45:18;100055.47;;;-2.24;74.50
69184;BME280;56291;53.960;27.550;2023-02-28T10:50:52;100038.00;;;-2.12;75.63
69184;BME280;56291;53.960;27.550;2023-02-28T10:53:45;100022.31;;;-2.03;73.04
69184;BME280;56291;53.960;27.550;2023-02-28T10:56:24;100012.63;;;-1.93;73.92
69184;BME280;56291;53.960;27.550;2023-02-28T10:59:03;100014.50;;;-2.00;75.77
69184;BME280;56291;53.960;27.550;2023-02-28T11:01:35;100014.28;;;-1.91;75.44
69184;BME280;56291;53.960;27.550;2023-02-28T11:04:03;100005.59;;;-1.88;75.17
69184;BME280;56291;53.960;27.550;2023-02-28T11:06:33;100003.44;;;-1.70;74.48
69184;BME280;56291;53.960;27.550;2023-02-28T11:09:16;99988.63;;;-1.64;74.40
69184;BME280;56291;53.960;27.550;2023-02-28T11:11:47;99992.81;;;-1.60;74.20
69184;BME280;56291;53.960;27.550;2023-02-28T11:14:51;99987.34;;;-1.49;73.68
69184;BME280;56291;53.960;27.550;2023-02-28T11:17:24;99986.78;;;-1.60;74.58
69184;BME280;56291;53.960;27.550;2023-02-28T11:19:51;99982.91;;;-1.44;75.48
69184;BME280;56291;53.960;27.550;2023-02-28T11:22:24;99984.38;;;-1.35;74.38
69184;BME280;56291;53.960;27.550;2023-02-28T11:25:06;99960.41;;;-1.39;73.87
69184;BME280;56291;53.960;27.550;2023-02-28T11:27:42;99964.25;;;-1.24;73.45
69184;BME280;56291;53.960;27.550;2023-02-28T11:30:30;99960.84;;;-1.24;74.24
69184;BME280;56291;53.960;27.550;2023-02-28T11:32:58;99946.94;;;-1.20;74.54
69184;BME280;56291;53.960;27.550;2023-02-28T11:35:42;99937.34;;;-1.15;73.84
69184;BME280;56291;53.960;27.550;2023-02-28T11:38:17;99939.66;;;-1.07;70.81
69184;BME280;56291;53.960;27.550;2023-02-28T11:56:14;99930.19;;;-0.78;70.66
69184;BME280;56291;53.960;27.550;2023-02-28T12:26:14;99894.19;;;-0.58;75.33
69184;BME280;56291;53.960;27.550;2023-02-28T12:29:09;99883.91;;;-0.59;76.01
69184;BME280;56291;53.960;27.550;2023-02-28T12:31:42;99870.16;;;-0.35;75.21
69184;BME280;56291;53.960;27.550;2023-02-28T12:34:20;99861.75;;;-0.41;74.65
69184;BME280;56291;53.960;27.550;2023-02-28T12:36:53;99848.53;;;-0.32;74.03
69184;BME280;56291;53.960;27.550;2023-02-28T12:39:35;99842.34;;;-0.28;75.47
69184;BME280;56291;53.960;27.550;2023-02-28T12:42:10;99831.88;;;-0.25;74.52
69184;BME280;56291;53.960;27.550;2023-02-28T12:45:01;99851.50;;;-0.19;73.73
69184;BME280;56291;53.960;27.550;2023-02-28T12:47:28;99840.88;;;-0.11;74.05
69184;BME280;56291;53.960;27.550;2023-02-28T12:50:06;99838.81;;;-0.02;73.06
69184;BME280;56291;53.960;27.550;2023-02-28T12:58:43;99846.06;;;0.12;73.33
69184;BME280;56291;53.960;27.550;2023-02-28T13:04:26;99844.78;;;0.24;71.81
69184;BME280;56291;53.960;27.550;2023-02-28T13:09:55;99835.81;;;0.33;72.58
69184;BME280;56291;53.960;27.550;2023-02-28T13:12:23;99832.97;;;0.41;72.71
69184;BME280;56291;53.960;27.550;2023-02-28T13:14:50;99819.94;;;0.42;70.98
69184;BME280;56291;53.960;27.550;2023-02-28T13:17:30;99821.06;;;0.35;74.66
69184;BME280;56291;53.960;27.550;2023-02-28T13:19:59;99828.88;;;0.33;74.51
69184;BME280;56291;53.960;27.550;2023-02-28T13:24:57;99811.81;;;0.51;74.71
69184;BME280;56291;53.960;27.550;2023-02-28T13:27:37;99807.31;;;0.57;74.02
69184;BME280;56291;53.960;27.550;2023-02-28T13:38:59;99813.31;;;0.57;72.52
69184;BME280;56291;53.960;27.550;2023-02-28T13:41:49;99796.69;;;0.63;73.99
69184;BME280;56291;53.960;27.550;2023-02-28T13:44:20;99793.75;;;0.72;71.61
69184;BME280;56291;53.960;27.550;2023-02-28T13:47:39;99794.41;;;0.77;70.62
69184;BME280;56291;53.960;27.550;2023-02-28T13:49:42;99799.19;;;0.66;73.72
69184;BME280;56291;53.960;27.550;2023-02-28T13:52:20;99806.94;;;0.66;74.94
69184;BME280;56291;53.960;27.550;2023-02-28T13:54:56;99786.88;;;0.71;75.66
69184;BME280;56291;53.960;27.550;2023-02-28T14:05:18;99749.75;;;0.93;73.81
69184;BME280;56291;53.960;27.550;2023-02-28T14:08:04;99740.09;;;0.96;72.00
69184;BME280;56291;53.960;27.550;2023-02-28T14:10:38;99740.94;;;0.97;73.54
69184;BME280;56291;53.960;27.550;2023-02-28T14:16:06;99723.38;;;1.03;73.38
69184;BME280;56291;53.960;27.550;2023-02-28T14:19:00;99715.91;;;1.16;73.04
69184;BME280;56291;53.960;27.550;2023-02-28T14:21:34;99727.66;;;1.05;74.30
69184;BME280;56291;53.960;27.550;2023-02-28T14:35:43;99741.41;;;1.07;71.98
69184;BME280;56291;53.960;27.550;2023-02-28T14:41:34;99746.16;;;0.95;72.85
69184;BME280;56291;53.960;27.550;2023-02-28T14:44:18;99749.16;;;0.86;72.71
69184;BME280;56291;53.960;27.550;2023-02-28T14:46:50;99745.22;;;0.77;71.07
69184;BME280;56291;53.960;27.550;2023-02-28T14:49:27;99741.75;;;0.77;71.87
69184;BME280;56291;53.960;27.550;2023-02-28T14:54:39;99747.69;;;0.58;70.98
69184;BME280;56291;53.960;27.550;2023-02-28T14:57:05;99749.00;;;0.68;73.29
69184;BME280;56291;53.960;27.550;2023-02-28T14:59:34;99749.13;;;0.65;71.68
69184;BME280;56291;53.960;27.550;2023-02-28T15:02:22;99756.19;;;0.62;70.76
69184;BME280;56291;53.960;27.550;2023-02-28T15:04:58;99764.13;;;0.57;71.66
69184;BME280;56291;53.960;27.550;2023-02-28T15:07:25;99769.22;;;0.59;72.97
69184;BME280;56291;53.960;27.550;2023-02-28T15:10:49;99759.59;;;0.62;74.17
69184;BME280;56291;53.960;27.550;2023-02-28T15:13:10;99757.50;;;0.50;70.04
69184;BME280;56291;53.960;27.550;2023-02-28T15:21:03;99754.69;;;0.34;72.03
69184;BME280;56291;53.960;27.550;2023-02-28T15:23:32;99752.16;;;0.32;71.67
69184;BME280;56291;53.960;27.550;2023-02-28T15:26:00;99764.78;;;0.40;73.58
69184;BME280;56291;53.960;27.550;2023-02-28T15:28:28;99761.44;;;0.38;73.46
69184;BME280;56291;53.960;27.550;2023-02-28T15:31:27;99759.81;;;0.36;73.19
69184;BME280;56291;53.960;27.550;2023-02-28T15:33:56;99759.19;;;0.29;71.76
69184;BME280;56291;53.960;27.550;2023-02-28T15:36:29;99759.91;;;0.10;69.95
69184;BME280;56291;53.960;27.550;2023-02-28T15:38:58;99772.72;;;0.13;72.78
69184;BME280;56291;53.960;27.550;2023-02-28T15:41:27;99765.97;;;0.09;71.60
69184;BME280;56291;53.960;27.550;2023-02-28T15:44:27;99761.56;;;0.13;71.53
69184;BME280;56291;53.960;27.550;2023-02-28T15:49:23;99759.34;;;0.02;70.49
69184;BME280;56291;53.960;27.550;2023-02-28T15:51:53;99751.28;;;-0.12;70.84
69184;BME280;56291;53.960;27.550;2023-02-28T15:54:32;99747.78;;;-0.11;72.19
69184;BME280;56291;53.960;27.550;2023-02-28T15:57:05;99746.63;;;-0.03;73.03
69184;BME280;56291;53.960;27.550;2023-02-28T15:59:36;99746.00;;;-0.09;72.39
69184;BME280;56291;53.960;27.550;2023-02-28T16:05:27;99755.19;;;-0.02;72.93
69184;BME280;56291;53.960;27.550;2023-02-28T16:08:11;99752.94;;;-0.11;71.92
69184;BME280;56291;53.960;27.550;2023-02-28T16:10:38;99756.84;;;-0.23;72.38
69184;BME280;56291;53.960;27.550;2023-02-28T16:13:05;99763.41;;;-0.14;72.57
69184;BME280;56291;53.960;27.550;2023-02-28T16:15:35;99760.22;;;-0.21;70.27
69184;BME280;56291;53.960;27.550;2023-02-28T16:18:12;99754.53;;;-0.31;70.81
69184;BME280;56291;53.960;27.550;2023-02-28T16:20:40;99757.81;;;-0.26;74.10
69184;BME280;56291;53.960;27.550;2023-02-28T16:23:06;99766.75;;;-0.35;71.76
69184;BME280;56291;53.960;27.550;2023-02-28T16:25:39;99771.41;;;-0.44;71.68
69184;BME280;56291;53.960;27.550;2023-02-28T16:28:20;99779.03;;;-0.41;72.39
69184;BME280;56291;53.960;27.550;2023-02-28T16:30:47;99773.69;;;-0.37;71.30
69184;BME280;56291;53.960;27.550;2023-02-28T16:33:14;99774.66;;;-0.39;72.21
69184;BME280;56291;53.960;27.550;2023-02-28T16:35:40;99780.56;;;-0.36;72.34
69184;BME280;56291;53.960;27.550;2023-02-28T16:38:06;99767.06;;;-0.44;72.02
69184;BME280;56291;53.960;27.550;2023-02-28T16:40:35;99763.66;;;-0.44;71.92
69184;BME280;56291;53.960;27.550;2023-02-28T16:43:07;99760.50;;;-0.53;71.60
69184;BME280;56291;53.960;27.550;2023-02-28T16:45:36;99762.13;;;-0.50;71.96
69184;BME280;56291;53.960;27.550;2023-02-28T16:48:03;99767.34;;;-0.52;71.28
69184;BME280;56291;53.960;27.550;2023-02-28T16:50:31;99762.84;;;-0.46;72.51
69184;BME280;56291;53.960;27.550;2023-02-28T16:52:58;99764.41;;;-0.42;72.81
69184;BME280;56291;53.960;27.550;2023-02-28T16:55:25;99747.31;;;-0.46;73.10
69184;BME280;56291;53.960;27.550;2023-02-28T16:57:54;99738.03;;;-0.50;73.58
69184;BME280;56291;53.960;27.550;2023-02-28T17:00:21;99739.94;;;-0.56;71.91
69184;BME280;56291;53.960;27.550;2023-02-28T17:02:48;99736.53;;;-0.58;71.80
69184;BME280;56291;53.960;27.550;2023-02-28T17:05:15;99752.69;;;-0.51;73.25
69184;BME280;56291;53.960;27.550;2023-02-28T17:07:42;99755.25;;;-0.51;72.18
69184;BME280;56291;53.960;27.550;2023-02-28T17:10:15;99750.94;;;-0.50;72.10
69184;BME280;56291;53.960;27.550;2023-02-28T17:12:41;99743.69;;;-0.64;72.81
69184;BME280;56291;53.960;27.550;2023-02-28T17:15:12;99751.44;;;-0.64;72.46
69184;BME280;56291;53.960;27.550;2023-02-28T17:17:42;99751.09;;;-0.55;72.45
69184;BME280;56291;53.960;27.550;2023-02-28T17:20:19;99744.97;;;-0.53;73.38
69184;BME280;56291;53.960;27.550;2023-02-28T17:22:50;99740.09;;;-0.60;72.30
69184;BME280;56291;53.960;27.550;2023-02-28T17:25:16;99740.75;;;-0.55;72.81
69184;BME280;56291;53.960;27.550;2023-02-28T17:27:43;99747.84;;;-0.60;71.87
69184;BME280;56291;53.960;27.550;2023-02-28T17:30:21;99753.97;;;-0.63;72.45
69184;BME280;56291;53.960;27.550;2023-02-28T17:32:48;99745.47;;;-0.66;71.79
69184;BME280;56291;53.960;27.550;2023-02-28T17:35:14;99741.16;;;-0.66;73.23
69184;BME280;56291;53.960;27.550;2023-02-28T17:37:41;99747.22;;;-0.67;72.26
69184;BME280;56291;53.960;27.550;2023-02-28T17:40:16;99744.53;;;-0.64;72.90
69184;BME280;56291;53.960;27.550;2023-02-28T17:42:43;99741.88;;;-0.62;72.65
69184;BME280;56291;53.960;27.550;2023-02-28T17:45:10;99741.88;;;-0.62;72.59
69184;BME280;56291;53.960;27.550;2023-02-28T17:47:37;99732.59;;;-0.68;72.83
69184;BME280;56291;53.960;27.550;2023-02-28T17:50:03;99736.13;;;-0.71;73.04
69184;BME280;56291;53.960;27.550;2023-02-28T17:52:30;99730.97;;;-0.71;72.71
69184;BME280;56291;53.960;27.550;2023-02-28T17:54:56;99732.59;;;-0.68;72.19
69184;BME280;56291;53.960;27.550;2023-02-28T17:57:23;99730.97;;;-0.71;73.08
69184;BME280;56291;53.960;27.550;2023-02-28T17:59:49;99729.25;;;-0.70;73.44
69184;BME280;56291;53.960;27.550;2023-02-28T18:02:15;99726.75;;;-0.73;73.47
69184;BME280;56291;53.960;27.550;2023-02-28T18:04:42;99724.97;;;-0.71;73.38
69184;BME280;56291;53.960;27.550;2023-02-28T18:07:11;99715.53;;;-0.72;73.00
69184;BME280;56291;53.960;27.550;2023-02-28T18:09:38;99710.41;;;-0.74;73.50
69184;BME280;56291;53.960;27.550;2023-02-28T18:12:04;99713.00;;;-0.74;72.46
69184;BME280;56291;53.960;27.550;2023-02-28T18:14:30;99705.31;;;-0.75;73.25
69184;BME280;56291;53.960;27.550;2023-02-28T18:16:57;99701.03;;;-0.76;73.21
69184;BME280;56291;53.960;27.550;2023-02-28T18:19:23;99694.16;;;-0.77;73.16
69184;BME280;56291;53.960;27.550;2023-02-28T18:21:52;99689.94;;;-0.78;73.37
69184;BME280;56291;53.960;27.550;2023-02-28T18:24:20;99686.41;;;-0.77;73.60
69184;BME280;56291;53.960;27.550;2023-02-28T18:26:48;99677.91;;;-0.79;73.59
69184;BME280;56291;53.960;27.550;2023-02-28T18:29:25;99664.09;;;-0.78;73.63
69184;BME280;56291;53.960;27.550;2023-02-28T18:31:53;99666.72;;;-0.80;73.12
69184;BME280;56291;53.960;27.550;2023-02-28T18:34:20;99665.09;;;-0.82;73.58
69184;BME280;56291;53.960;27.550;2023-02-28T18:36:47;99653.00;;;-0.82;72.98
69184;BME280;56291;53.960;27.550;2023-02-28T18:39:16;99640.22;;;-0.85;73.72
69184;BME280;56291;53.960;27.550;2023-02-28T18:41:42;99637.75;;;-0.88;73.39
69184;BME280;56291;53.960;27.550;2023-02-28T18:44:09;99639.41;;;-0.87;72.61
69184;BME280;56291;53.960;27.550;2023-02-28T18:46:35;99635.28;;;-0.91;72.56
69184;BME280;56291;53.960;27.550;2023-02-28T18:49:03;99631.00;;;-0.92;72.68
69184;BME280;56291;53.960;27.550;2023-02-28T18:51:30;99625.97;;;-0.95;73.02
69184;BME280;56291;53.960;27.550;2023-02-28T18:53:58;99622.56;;;-0.97;72.61
69184;BME280;56291;53.960;27.550;2023-02-28T18:56:25;99626.09;;;-1.00;72.54
69184;BME280;56291;53.960;27.550;2023-02-28T18:58:52;99617.63;;;-1.04;73.06
69184;BME280;56291;53.960;27.550;2023-02-28T19:03:47;99605.56;;;-1.03;72.86
69184;BME280;56291;53.960;27.550;2023-02-28T19:06:14;99591.81;;;-1.04;73.14
69184;BME280;56291;53.960;27.550;2023-02-28T19:08:41;99592.66;;;-1.03;73.33
69184;BME280;56291;53.960;27.550;2023-02-28T19:11:15;99589.44;;;-1.10;73.29
69184;BME280;56291;53.960;27.550;2023-02-28T19:13:42;99580.06;;;-1.12;73.91
69184;BME280;56291;53.960;27.550;2023-02-28T19:16:09;99588.59;;;-1.10;73.91
69184;BME280;56291;53.960;27.550;2023-02-28T19:18:37;99590.38;;;-1.12;73.97
69184;BME280;56291;53.960;27.550;2023-02-28T19:21:06;99584.41;;;-1.13;73.94
69184;BME280;56291;53.960;27.550;2023-02-28T19:23:34;99575.94;;;-1.16;74.15
69184;BME280;56291;53.960;27.550;2023-02-28T19:26:09;99575.81;;;-1.13;73.90
69184;BME280;56291;53.960;27.550;2023-02-28T19:28:36;99566.31;;;-1.13;74.51
69184;BME280;56291;53.960;27.550;2023-02-28T19:31:04;99558.63;;;-1.14;74.02
69184;BME280;56291;53.960;27.550;2023-02-28T19:33:31;99557.81;;;-1.15;74.28
69184;BME280;56291;53.960;27.550;2023-02-28T19:36:00;99550.88;;;-1.14;74.28
69184;BME280;56291;53.960;27.550;2023-02-28T19:38:27;99537.22;;;-1.16;74.81
69184;BME280;56291;53.960;27.550;2023-02-28T19:41:01;99541.56;;;-1.18;75.07
69184;BME280;56291;53.960;27.550;2023-02-28T19:43:27;99521.72;;;-1.16;74.25
69184;BME280;56291;53.960;27.550;2023-02-28T19:45:54;99526.91;;;-1.18;74.04
69184;BME280;56291;53.960;27.550;2023-02-28T19:48:22;99530.28;;;-1.16;74.71
69184;BME280;56291;53.960;27.550;2023-02-28T19:50:56;99525.13;;;-1.16;74.75
69184;BME280;56291;53.960;27.550;2023-02-28T19:53:22;99514.81;;;-1.16;74.33
69184;BME280;56291;53.960;27.550;2023-02-28T19:55:49;99522.59;;;-1.17;74.51
69184;BME280;56291;53.960;27.550;2023-02-28T19:58:18;99519.13;;;-1.16;74.74
69184;BME280;56291;53.960;27.550;2023-02-28T20:00:44;99512.28;;;-1.17;75.01
69184;BME280;56291;53.960;27.550;2023-02-28T20:03:16;99511.41;;;-1.18;74.78
69184;BME280;56291;53.960;27.550;2023-02-28T20:05:46;99511.41;;;-1.18;75.12
69184;BME280;56291;53.960;27.550;2023-02-28T20:08:13;99505.44;;;-1.18;75.81
69184;BME280;56291;53.960;27.550;2023-02-28T20:10:41;99513.16;;;-1.18;75.47
69184;BME280;56291;53.960;27.550;2023-02-28T20:13:07;99507.94;;;-1.17;75.24